sensor_id;sensor_type;location;lat;lon;timestamp;pressure;altitude;pressure_sealevel;temperature;humidity
83195;BME280;73090;49.282;11.402;2024-02-21T00:00:23;97341.59;;;3.60;84.76
83195;BME280;73090;49.282;11.402;2024-02-21T00:04:25;97329.22;;;3.52;84.95
83195;BME280;73090;49.282;11.402;2024-02-21T00:08:26;97333.97;;;3.47;85.08
83195;BME280;73090;49.282;11.402;2024-02-21T00:12:28;97324.84;;;3.41;85.64
83195;BME280;73090;49.282;11.402;2024-02-21T00:16:30;97313.06;;;3.37;85.75
83195;BME280;73090;49.282;11.402;2024-02-21T00:20:31;97315.06;;;3.34;86.17
83195;BME280;73090;49.282;11.402;2024-02-21T00:24:33;97313.78;;;3.28;86.27
83195;BME280;73090;49.282;11.402;2024-02-21T00:28:35;97308.50;;;3.18;87.08
83195;BME280;73090;49.282;11.402;2024-02-21T00:32:36;97308.97;;;3.12;87.19
83195;BME280;73090;49.282;11.402;2024-02-21T00:36:38;97303.28;;;3.07;87.25
83195;BME280;73090;49.282;11.402;2024-02-21T00:40:40;97294.78;;;3.05;87.26
83195;BME280;73090;49.282;11.402;2024-02-21T00:44:41;97295.88;;;3.02;87.89
83195;BME280;73090;49.282;11.402;2024-02-21T00:48:43;97292.56;;;3.00;88.21
83195;BME280;73090;49.282;11.402;2024-02-21T00:52:44;97292.44;;;3.02;88.32
83195;BME280;73090;49.282;11.402;2024-02-21T00:56:46;97290.78;;;3.12;88.00
83195;BME280;73090;49.282;11.402;2024-02-21T01:00:48;97281.44;;;3.21;87.81
83195;BME280;73090;49.282;11.402;2024-02-21T01:04:50;97279.16;;;3.27;87.47
83195;BME280;73090;49.282;11.402;2024-02-21T01:08:52;97277.16;;;3.31;87.08
83195;BME280;73090;49.282;11.402;2024-02-21T01:12:53;97266.66;;;3.33;86.99
83195;BME280;73090;49.282;11.402;2024-02-21T01:16:55;97269.72;;;3.38;86.95
83195;BME280;73090;49.282;11.402;2024-02-21T01:20:57;97268.50;;;3.42;86.91
83195;BME280;73090;49.282;11.402;2024-02-21T01:24:58;97263.06;;;3.45;86.77
83195;BME280;73090;49.282;11.402;2024-02-21T01:29:00;97258.09;;;3.53;86.76
83195;BME280;73090;49.282;11.402;2024-02-21T01:33:02;97250.03;;;3.56;86.53
83195;BME280;73090;49.282;11.402;2024-02-21T01:37:03;97248.81;;;3.60;86.52
83195;BME280;73090;49.282;11.402;2024-02-21T01:41:06;97243.13;;;3.67;86.55
83195;BME280;73090;49.282;11.402;2024-02-21T01:45:08;97235.22;;;3.68;86.60
83195;BME280;73090;49.282;11.402;2024-02-21T01:49:10;97229.63;;;3.73;86.58
83195;BME280;73090;49.282;11.402;2024-02-21T01:53:13;97226.78;;;3.76;86.74
83195;BME280;73090;49.282;11.402;2024-02-21T01:57:19;97215.41;;;3.77;86.58
83195;BME280;73090;49.282;11.402;2024-02-21T02:01:21;97203.81;;;3.81;86.66
83195;BME280;73090;49.282;11.402;2024-02-21T02:05:23;97196.31;;;3.88;86.37
83195;BME280;73090;49.282;11.402;2024-02-21T02:09:25;97198.81;;;3.89;86.19
83195;BME280;73090;49.282;11.402;2024-02-21T02:13:26;97196.50;;;3.96;85.84
83195;BME280;73090;49.282;11.402;2024-02-21T02:17:28;97195.69;;;3.95;85.70
83195;BME280;73090;49.282;11.402;2024-02-21T02:21:32;97196.97;;;4.01;85.46
83195;BME280;73090;49.282;11.402;2024-02-21T02:25:36;97195.06;;;4.03;85.93
83195;BME280;73090;49.282;11.402;2024-02-21T02:29:38;97196.72;;;4.04;85.63
83195;BME280;73090;49.282;11.402;2024-02-21T02:33:42;97194.69;;;4.08;85.83
83195;BME280;73090;49.282;11.402;2024-02-21T02:37:49;97186.06;;;4.07;86.12
83195;BME280;73090;49.282;11.402;2024-02-21T02:41:51;97180.84;;;4.07;85.82
83195;BME280;73090;49.282;11.402;2024-02-21T02:45:53;97189.34;;;4.09;85.79
83195;BME280;73090;49.282;11.402;2024-02-21T02:49:55;97174.69;;;4.08;86.04
83195;BME280;73090;49.282;11.402;2024-02-21T02:53:57;97167.84;;;4.07;86.42
83195;BME280;73090;49.282;11.402;2024-02-21T02:57:58;97169.47;;;4.08;86.26
83195;BME280;73090;49.282;11.402;2024-02-21T03:02:01;97154.84;;;4.07;85.96
83195;BME280;73090;49.282;11.402;2024-02-21T03:06:03;97154.84;;;4.07;86.31
83195;BME280;73090;49.282;11.402;2024-02-21T03:10:04;97145.25;;;4.08;86.53
83195;BME280;73090;49.282;11.402;2024-02-21T03:14:06;97142.50;;;4.09;86.40
83195;BME280;73090;49.282;11.402;2024-02-21T03:18:08;97144.28;;;4.09;86.46
83195;BME280;73090;49.282;11.402;2024-02-21T03:22:10;97140.47;;;4.13;86.28
83195;BME280;73090;49.282;11.402;2024-02-21T03:26:11;97150.34;;;4.19;85.86
83195;BME280;73090;49.282;11.402;2024-02-21T03:30:14;97147.19;;;4.15;85.76
83195;BME280;73090;49.282;11.402;2024-02-21T03:34:16;97148.81;;;4.16;85.40
83195;BME280;73090;49.282;11.402;2024-02-21T03:38:19;97142.81;;;4.16;85.69
83195;BME280;73090;49.282;11.402;2024-02-21T03:42:20;97137.34;;;4.19;85.81
83195;BME280;73090;49.282;11.402;2024-02-21T03:46:24;97126.41;;;4.25;85.18
83195;BME280;73090;49.282;11.402;2024-02-21T03:50:26;97125.88;;;4.22;85.17
83195;BME280;73090;49.282;11.402;2024-02-21T03:54:29;97127.75;;;4.20;85.08
83195;BME280;73090;49.282;11.402;2024-02-21T03:58:31;97128.72;;;4.18;85.45
83195;BME280;73090;49.282;11.402;2024-02-21T04:02:32;97128.28;;;4.13;85.30
83195;BME280;73090;49.282;11.402;2024-02-21T04:06:34;97125.13;;;4.10;85.45
83195;BME280;73090;49.282;11.402;2024-02-21T04:10:36;97121.16;;;4.06;85.55
83195;BME280;73090;49.282;11.402;2024-02-21T04:14:37;97128.09;;;4.05;85.91
83195;BME280;73090;49.282;11.402;2024-02-21T04:18:43;97121.81;;;4.08;85.75
83195;BME280;73090;49.282;11.402;2024-02-21T04:22:45;97110.59;;;4.07;85.14
83195;BME280;73090;49.282;11.402;2024-02-21T04:26:47;97101.72;;;4.20;84.90
83195;BME280;73090;49.282;11.402;2024-02-21T04:30:48;97095.84;;;4.17;84.96
83195;BME280;73090;49.282;11.402;2024-02-21T04:34:50;97091.44;;;4.18;84.96
83195;BME280;73090;49.282;11.402;2024-02-21T04:38:52;97083.50;;;4.20;84.63
83195;BME280;73090;49.282;11.402;2024-02-21T04:42:54;97072.16;;;4.21;84.79
83195;BME280;73090;49.282;11.402;2024-02-21T04:46:55;97068.75;;;4.20;84.77
83195;BME280;73090;49.282;11.402;2024-02-21T04:50:57;97060.34;;;4.16;84.81
83195;BME280;73090;49.282;11.402;2024-02-21T04:54:58;97050.53;;;4.20;84.89
83195;BME280;73090;49.282;11.402;2024-02-21T04:59:00;97049.84;;;4.28;84.53
83195;BME280;73090;49.282;11.402;2024-02-21T05:03:02;97054.34;;;4.26;84.53
83195;BME280;73090;49.282;11.402;2024-02-21T05:07:04;97056.41;;;4.22;85.13
83195;BME280;73090;49.282;11.402;2024-02-21T05:11:06;97057.50;;;4.20;84.97
83195;BME280;73090;49.282;11.402;2024-02-21T05:15:08;97060.25;;;4.28;84.79
83195;BME280;73090;49.282;11.402;2024-02-21T05:19:10;97052.03;;;4.23;85.20
83195;BME280;73090;49.282;11.402;2024-02-21T05:23:12;97051.59;;;4.17;85.67
83195;BME280;73090;49.282;11.402;2024-02-21T05:27:14;97038.03;;;4.14;85.88
83195;BME280;73090;49.282;11.402;2024-02-21T05:31:17;97038.19;;;4.12;85.91
83195;BME280;73090;49.282;11.402;2024-02-21T05:35:19;97027.19;;;4.09;86.24
83195;BME280;73090;49.282;11.402;2024-02-21T05:39:23;97018.31;;;4.11;86.19
83195;BME280;73090;49.282;11.402;2024-02-21T05:43:25;97023.50;;;4.11;86.10
83195;BME280;73090;49.282;11.402;2024-02-21T05:47:26;97023.78;;;4.08;86.37
83195;BME280;73090;49.282;11.402;2024-02-21T05:51:34;97019.56;;;4.07;86.42
83195;BME280;73090;49.282;11.402;2024-02-21T05:55:36;97020.50;;;4.06;86.70
83195;BME280;73090;49.282;11.402;2024-02-21T05:59:38;97020.75;;;4.03;86.61
83195;BME280;73090;49.282;11.402;2024-02-21T06:03:41;97014.03;;;4.00;86.65
83195;BME280;73090;49.282;11.402;2024-02-21T06:07:43;97018.81;;;3.95;86.73
83195;BME280;73090;49.282;11.402;2024-02-21T06:11:45;97016.44;;;3.83;86.96
83195;BME280;73090;49.282;11.402;2024-02-21T06:15:48;97015.06;;;3.78;87.03
83195;BME280;73090;49.282;11.402;2024-02-21T06:19:50;97023.41;;;3.72;87.27
83195;BME280;73090;49.282;11.402;2024-02-21T06:23:52;97025.94;;;3.62;87.69
83195;BME280;73090;49.282;11.402;2024-02-21T06:27:54;97029.91;;;3.57;87.82
83195;BME280;73090;49.282;11.402;2024-02-21T06:31:55;97027.81;;;3.51;88.42
83195;BME280;73090;49.282;11.402;2024-02-21T06:35:57;97026.28;;;3.48;88.85
83195;BME280;73090;49.282;11.402;2024-02-21T06:39:59;97020.53;;;3.44;89.19
83195;BME280;73090;49.282;11.402;2024-02-21T06:44:00;97027.50;;;3.44;89.93
83195;BME280;73090;49.282;11.402;2024-02-21T06:48:02;97045.31;;;3.49;89.91
83195;BME280;73090;49.282;11.402;2024-02-21T06:52:04;97043.72;;;3.57;89.67
83195;BME280;73090;49.282;11.402;2024-02-21T06:56:06;97038.81;;;3.64;89.29
83195;BME280;73090;49.282;11.402;2024-02-21T07:00:08;97044.47;;;3.69;89.04
83195;BME280;73090;49.282;11.402;2024-02-21T07:04:10;97043.78;;;3.77;88.88
83195;BME280;73090;49.282;11.402;2024-02-21T07:08:11;97056.53;;;3.80;88.59
83195;BME280;73090;49.282;11.402;2024-02-21T07:12:13;97048.34;;;3.85;88.33
83195;BME280;73090;49.282;11.402;2024-02-21T07:16:15;97044.53;;;3.89;87.88
83195;BME280;73090;49.282;11.402;2024-02-21T07:20:17;97039.06;;;3.92;87.29
83195;BME280;73090;49.282;11.402;2024-02-21T07:24:19;97040.81;;;3.91;87.05
83195;BME280;73090;49.282;11.402;2024-02-21T07:28:21;97018.25;;;3.92;86.68
83195;BME280;73090;49.282;11.402;2024-02-21T07:32:23;97021.00;;;3.90;86.58
83195;BME280;73090;49.282;11.402;2024-02-21T07:36:31;97011.00;;;3.86;86.28
83195;BME280;73090;49.282;11.402;2024-02-21T07:40:32;97007.84;;;3.82;86.43
83195;BME280;73090;49.282;11.402;2024-02-21T07:44:34;97002.53;;;3.93;86.48
83195;BME280;73090;49.282;11.402;2024-02-21T07:48:36;97002.19;;;4.27;86.26
83195;BME280;73090;49.282;11.402;2024-02-21T07:52:37;96999.75;;;4.75;84.73
83195;BME280;73090;49.282;11.402;2024-02-21T07:56:39;96992.25;;;5.29;82.62
83195;BME280;73090;49.282;11.402;2024-02-21T08:00:40;96994.00;;;5.75;79.77
83195;BME280;73090;49.282;11.402;2024-02-21T08:04:43;96999.75;;;5.89;78.35
83195;BME280;73090;49.282;11.402;2024-02-21T08:08:44;96997.78;;;6.01;78.03
83195;BME280;73090;49.282;11.402;2024-02-21T08:12:46;97005.81;;;6.35;75.72
83195;BME280;73090;49.282;11.402;2024-02-21T08:16:48;96998.28;;;6.68;75.01
83195;BME280;73090;49.282;11.402;2024-02-21T08:20:50;97000.00;;;6.95;74.20
83195;BME280;73090;49.282;11.402;2024-02-21T08:24:51;96992.94;;;7.14;72.17
83195;BME280;73090;49.282;11.402;2024-02-21T08:28:53;96968.47;;;7.23;72.03
83195;BME280;73090;49.282;11.402;2024-02-21T08:32:54;96974.53;;;7.50;71.73
83195;BME280;73090;49.282;11.402;2024-02-21T08:36:56;96953.84;;;7.73;70.68
83195;BME280;73090;49.282;11.402;2024-02-21T08:40:58;96955.56;;;7.90;70.46
83195;BME280;73090;49.282;11.402;2024-02-21T08:44:59;96951.19;;;7.99;69.56
83195;BME280;73090;49.282;11.402;2024-02-21T08:49:01;96954.84;;;8.23;68.70
83195;BME280;73090;49.282;11.402;2024-02-21T08:53:03;96958.34;;;8.48;67.04
83195;BME280;73090;49.282;11.402;2024-02-21T08:57:04;96956.72;;;8.63;65.94
83195;BME280;73090;49.282;11.402;2024-02-21T09:01:06;96960.00;;;8.65;66.56
83195;BME280;73090;49.282;11.402;2024-02-21T09:05:11;96962.63;;;8.74;66.22
83195;BME280;73090;49.282;11.402;2024-02-21T09:09:13;96946.41;;;8.95;65.04
83195;BME280;73090;49.282;11.402;2024-02-21T09:13:15;96942.44;;;9.15;64.94
83195;BME280;73090;49.282;11.402;2024-02-21T09:17:17;96936.53;;;9.21;64.09
83195;BME280;73090;49.282;11.402;2024-02-21T09:21:18;96940.88;;;9.46;64.13
83195;BME280;73090;49.282;11.402;2024-02-21T09:25:20;96941.47;;;9.72;62.15
83195;BME280;73090;49.282;11.402;2024-02-21T09:29:22;96933.41;;;9.74;62.20
83195;BME280;73090;49.282;11.402;2024-02-21T09:33:28;96926.00;;;9.77;62.35
83195;BME280;73090;49.282;11.402;2024-02-21T09:37:33;96929.72;;;9.91;61.45
83195;BME280;73090;49.282;11.402;2024-02-21T09:41:37;96914.13;;;9.90;59.96
83195;BME280;73090;49.282;11.402;2024-02-21T09:45:46;96915.13;;;9.89;60.31
83195;BME280;73090;49.282;11.402;2024-02-21T09:49:48;96909.25;;;10.10;59.38
83195;BME280;73090;49.282;11.402;2024-02-21T09:53:50;96907.50;;;10.33;60.39
83195;BME280;73090;49.282;11.402;2024-02-21T09:58:07;96903.13;;;10.49;58.65
83195;BME280;73090;49.282;11.402;2024-02-21T10:02:10;96905.75;;;10.49;57.50
83195;BME280;73090;49.282;11.402;2024-02-21T10:06:13;96907.59;;;10.63;57.16
83195;BME280;73090;49.282;11.402;2024-02-21T10:10:14;96900.09;;;10.75;57.14
83195;BME280;73090;49.282;11.402;2024-02-21T10:14:17;96893.41;;;10.49;57.40
83195;BME280;73090;49.282;11.402;2024-02-21T10:18:19;96897.69;;;10.50;57.78
83195;BME280;73090;49.282;11.402;2024-02-21T10:22:21;96878.78;;;10.70;59.04
83195;BME280;73090;49.282;11.402;2024-02-21T10:26:23;96876.16;;;10.70;57.75
83195;BME280;73090;49.282;11.402;2024-02-21T10:30:24;96861.31;;;10.77;57.48
83195;BME280;73090;49.282;11.402;2024-02-21T10:34:26;96852.59;;;10.77;57.92
83195;BME280;73090;49.282;11.402;2024-02-21T10:38:28;96843.09;;;10.76;56.80
83195;BME280;73090;49.282;11.402;2024-02-21T10:42:29;96847.31;;;10.77;56.47
83195;BME280;73090;49.282;11.402;2024-02-21T10:46:34;96835.50;;;10.58;57.01
83195;BME280;73090;49.282;11.402;2024-02-21T10:50:56;96843.94;;;10.30;58.34
83195;BME280;73090;49.282;11.402;2024-02-21T10:55:04;96835.28;;;10.21;58.36
83195;BME280;73090;49.282;11.402;2024-02-21T10:59:07;96823.28;;;10.50;56.01
83195;BME280;73090;49.282;11.402;2024-02-21T11:03:08;96811.47;;;10.46;56.06
83195;BME280;73090;49.282;11.402;2024-02-21T11:07:10;96810.34;;;10.40;56.84
83195;BME280;73090;49.282;11.402;2024-02-21T11:11:13;96800.25;;;10.52;56.62
83195;BME280;73090;49.282;11.402;2024-02-21T11:15:34;96796.44;;;10.16;56.75
83195;BME280;73090;49.282;11.402;2024-02-21T11:19:36;96793.41;;;10.20;58.04
83195;BME280;73090;49.282;11.402;2024-02-21T11:23:37;96775.16;;;10.26;57.33
83195;BME280;73090;49.282;11.402;2024-02-21T11:27:45;96774.16;;;10.27;56.93
83195;BME280;73090;49.282;11.402;2024-02-21T11:31:47;96766.44;;;10.26;56.06
83195;BME280;73090;49.282;11.402;2024-02-21T11:35:49;96754.31;;;10.25;57.40
83195;BME280;73090;49.282;11.402;2024-02-21T11:39:50;96753.59;;;10.31;57.36
83195;BME280;73090;49.282;11.402;2024-02-21T11:43:54;96746.09;;;10.28;56.74
83195;BME280;73090;49.282;11.402;2024-02-21T11:47:56;96734.38;;;10.30;58.27
83195;BME280;73090;49.282;11.402;2024-02-21T11:52:01;96733.78;;;10.43;56.36
83195;BME280;73090;49.282;11.402;2024-02-21T11:56:05;96720.47;;;10.45;55.52
83195;BME280;73090;49.282;11.402;2024-02-21T12:00:18;96713.78;;;10.42;55.91
83195;BME280;73090;49.282;11.402;2024-02-21T12:04:23;96708.44;;;10.50;55.66
83195;BME280;73090;49.282;11.402;2024-02-21T12:08:27;96701.91;;;10.61;55.72
83195;BME280;73090;49.282;11.402;2024-02-21T12:12:30;96687.75;;;10.62;52.64
83195;BME280;73090;49.282;11.402;2024-02-21T12:16:35;96673.09;;;10.53;50.94
83195;BME280;73090;49.282;11.402;2024-02-21T12:20:38;96675.72;;;10.53;50.13
83195;BME280;73090;49.282;11.402;2024-02-21T12:24:43;96669.00;;;10.50;50.88
83195;BME280;73090;49.282;11.402;2024-02-21T12:28:49;96659.47;;;10.49;49.41
83195;BME280;73090;49.282;11.402;2024-02-21T12:32:50;96657.13;;;10.40;48.19
83195;BME280;73090;49.282;11.402;2024-02-21T12:36:52;96649.88;;;10.42;49.12
83195;BME280;73090;49.282;11.402;2024-02-21T12:40:53;96639.34;;;10.42;50.45
83195;BME280;73090;49.282;11.402;2024-02-21T12:44:55;96644.78;;;10.40;51.13
83195;BME280;73090;49.282;11.402;2024-02-21T12:48:57;96634.75;;;10.44;50.52
83195;BME280;73090;49.282;11.402;2024-02-21T12:52:59;96630.13;;;10.31;51.98
83195;BME280;73090;49.282;11.402;2024-02-21T12:57:01;96618.88;;;10.37;52.42
83195;BME280;73090;49.282;11.402;2024-02-21T13:01:04;96606.94;;;10.34;52.19
83195;BME280;73090;49.282;11.402;2024-02-21T13:05:06;96604.31;;;10.34;50.16
83195;BME280;73090;49.282;11.402;2024-02-21T13:09:09;96588.53;;;10.34;51.07
83195;BME280;73090;49.282;11.402;2024-02-21T13:13:12;96577.66;;;10.38;49.80
83195;BME280;73090;49.282;11.402;2024-02-21T13:17:14;96575.38;;;10.20;49.29
83195;BME280;73090;49.282;11.402;2024-02-21T13:21:18;96566.59;;;10.27;50.27
83195;BME280;73090;49.282;11.402;2024-02-21T13:25:20;96567.13;;;10.23;50.75
83195;BME280;73090;49.282;11.402;2024-02-21T13:29:22;96554.56;;;10.18;51.10
83195;BME280;73090;49.282;11.402;2024-02-21T13:33:24;96546.22;;;10.29;50.33
83195;BME280;73090;49.282;11.402;2024-02-21T13:37:26;96549.31;;;10.18;52.91
83195;BME280;73090;49.282;11.402;2024-02-21T13:41:28;96537.34;;;10.15;53.59
83195;BME280;73090;49.282;11.402;2024-02-21T13:45:31;96528.56;;;10.23;52.54
83195;BME280;73090;49.282;11.402;2024-02-21T13:49:32;96519.94;;;10.14;52.52
83195;BME280;73090;49.282;11.402;2024-02-21T13:53:34;96519.31;;;10.12;52.05
83195;BME280;73090;49.282;11.402;2024-02-21T13:57:36;96514.06;;;10.12;51.91
83195;BME280;73090;49.282;11.402;2024-02-21T14:01:38;96508.28;;;10.17;50.77
83195;BME280;73090;49.282;11.402;2024-02-21T14:05:39;96504.09;;;10.08;52.90
83195;BME280;73090;49.282;11.402;2024-02-21T14:09:44;96495.25;;;10.09;54.62
83195;BME280;73090;49.282;11.402;2024-02-21T14:13:45;96497.88;;;10.09;51.99
83195;BME280;73090;49.282;11.402;2024-02-21T14:17:47;96489.81;;;10.10;53.25
83195;BME280;73090;49.282;11.402;2024-02-21T14:21:48;96493.31;;;10.17;53.18
83195;BME280;73090;49.282;11.402;2024-02-21T14:25:50;96475.94;;;10.16;53.31
83195;BME280;73090;49.282;11.402;2024-02-21T14:29:52;96473.88;;;10.12;53.82
83195;BME280;73090;49.282;11.402;2024-02-21T14:33:54;96476.31;;;10.13;53.13
83195;BME280;73090;49.282;11.402;2024-02-21T14:37:56;96472.84;;;10.13;53.52
83195;BME280;73090;49.282;11.402;2024-02-21T14:41:59;96468.78;;;10.10;54.73
83195;BME280;73090;49.282;11.402;2024-02-21T14:46:01;96464.91;;;10.06;53.49
83195;BME280;73090;49.282;11.402;2024-02-21T14:50:06;96463.56;;;9.95;55.17
83195;BME280;73090;49.282;11.402;2024-02-21T14:54:08;96453.59;;;9.91;54.76
83195;BME280;73090;49.282;11.402;2024-02-21T14:58:10;96439.78;;;9.82;56.34
83195;BME280;73090;49.282;11.402;2024-02-21T15:02:12;96443.50;;;9.73;57.00
83195;BME280;73090;49.282;11.402;2024-02-21T15:06:14;96443.66;;;9.71;58.44
83195;BME280;73090;49.282;11.402;2024-02-21T15:10:15;96433.28;;;9.63;58.62
83195;BME280;73090;49.282;11.402;2024-02-21T15:14:19;96426.31;;;9.55;58.37
83195;BME280;73090;49.282;11.402;2024-02-21T15:18:25;96422.13;;;9.46;58.79
83195;BME280;73090;49.282;11.402;2024-02-21T15:22:27;96418.88;;;9.44;58.39
83195;BME280;73090;49.282;11.402;2024-02-21T15:26:29;96426.84;;;9.36;59.12
83195;BME280;73090;49.282;11.402;2024-02-21T15:30:31;96419.72;;;9.30;59.40
83195;BME280;73090;49.282;11.402;2024-02-21T15:34:33;96405.22;;;9.19;60.23
83195;BME280;73090;49.282;11.402;2024-02-21T15:38:35;96401.53;;;9.13;59.99
83195;BME280;73090;49.282;11.402;2024-02-21T15:42:36;96398.97;;;9.05;60.42
83195;BME280;73090;49.282;11.402;2024-02-21T15:46:39;96401.69;;;8.97;60.68
83195;BME280;73090;49.282;11.402;2024-02-21T15:50:41;96389.63;;;8.87;60.85
83195;BME280;73090;49.282;11.402;2024-02-21T15:54:42;96379.06;;;8.81;60.86
83195;BME280;73090;49.282;11.402;2024-02-21T15:58:44;96371.72;;;8.76;61.02
83195;BME280;73090;49.282;11.402;2024-02-21T16:02:46;96383.75;;;8.70;60.71
83195;BME280;73090;49.282;11.402;2024-02-21T16:06:47;96363.31;;;8.66;60.68
83195;BME280;73090;49.282;11.402;2024-02-21T16:10:52;96362.28;;;8.52;62.06
83195;BME280;73090;49.282;11.402;2024-02-21T16:14:54;96355.31;;;8.44;61.94
83195;BME280;73090;49.282;11.402;2024-02-21T16:18:56;96354.00;;;8.40;61.75
83195;BME280;73090;49.282;11.402;2024-02-21T16:22:57;96355.53;;;8.34;61.25
83195;BME280;73090;49.282;11.402;2024-02-21T16:27:04;96328.78;;;8.24;61.47
83195;BME280;73090;49.282;11.402;2024-02-21T16:31:11;96342.56;;;8.18;61.25
83195;BME280;73090;49.282;11.402;2024-02-21T16:35:13;96337.03;;;8.13;60.81
83195;BME280;73090;49.282;11.402;2024-02-21T16:39:15;96339.41;;;7.99;62.88
83195;BME280;73090;49.282;11.402;2024-02-21T16:43:16;96331.63;;;7.91;62.13
83195;BME280;73090;49.282;11.402;2024-02-21T16:47:18;96324.63;;;7.84;63.76
83195;BME280;73090;49.282;11.402;2024-02-21T16:51:21;96321.63;;;7.72;64.24
83195;BME280;73090;49.282;11.402;2024-02-21T16:55:23;96311.38;;;7.62;65.09
83195;BME280;73090;49.282;11.402;2024-02-21T16:59:25;96301.44;;;7.49;67.25
83195;BME280;73090;49.282;11.402;2024-02-21T17:03:26;96289.44;;;7.40;66.92
83195;BME280;73090;49.282;11.402;2024-02-21T17:07:28;96287.38;;;7.27;67.89
83195;BME280;73090;49.282;11.402;2024-02-21T17:11:30;96279.41;;;7.12;69.55
83195;BME280;73090;49.282;11.402;2024-02-21T17:15:32;96276.88;;;6.96;70.76
83195;BME280;73090;49.282;11.402;2024-02-21T17:19:34;96272.84;;;6.85;70.40
83195;BME280;73090;49.282;11.402;2024-02-21T17:23:36;96274.34;;;6.71;72.33
83195;BME280;73090;49.282;11.402;2024-02-21T17:27:38;96272.59;;;6.55;73.74
83195;BME280;73090;49.282;11.402;2024-02-21T17:31:40;96263.16;;;6.38;74.46
83195;BME280;73090;49.282;11.402;2024-02-21T17:35:41;96257.66;;;6.16;76.16
83195;BME280;73090;49.282;11.402;2024-02-21T17:39:45;96243.47;;;6.02;74.83
83195;BME280;73090;49.282;11.402;2024-02-21T17:43:46;96238.25;;;5.86;77.24
83195;BME280;73090;49.282;11.402;2024-02-21T17:47:48;96230.06;;;5.80;73.92
83195;BME280;73090;49.282;11.402;2024-02-21T17:51:52;96218.66;;;5.81;74.48
83195;BME280;73090;49.282;11.402;2024-02-21T17:55:57;96212.66;;;5.81;75.81
83195;BME280;73090;49.282;11.402;2024-02-21T18:00:00;96214.94;;;5.76;77.73
83195;BME280;73090;49.282;11.402;2024-02-21T18:04:03;96198.47;;;5.67;78.47
83195;BME280;73090;49.282;11.402;2024-02-21T18:08:05;96194.38;;;5.64;79.14
83195;BME280;73090;49.282;11.402;2024-02-21T18:12:07;96193.09;;;5.60;79.73
83195;BME280;73090;49.282;11.402;2024-02-21T18:16:09;96201.06;;;5.59;79.30
83195;BME280;73090;49.282;11.402;2024-02-21T18:20:11;96201.22;;;5.57;78.51
83195;BME280;73090;49.282;11.402;2024-02-21T18:24:13;96199.44;;;5.66;75.55
83195;BME280;73090;49.282;11.402;2024-02-21T18:28:14;96195.03;;;5.75;76.45
83195;BME280;73090;49.282;11.402;2024-02-21T18:32:17;96197.97;;;5.80;74.76
83195;BME280;73090;49.282;11.402;2024-02-21T18:36:19;96207.41;;;5.89;74.39
83195;BME280;73090;49.282;11.402;2024-02-21T18:40:21;96200.72;;;5.95;75.37
83195;BME280;73090;49.282;11.402;2024-02-21T18:44:23;96189.81;;;5.99;74.56
83195;BME280;73090;49.282;11.402;2024-02-21T18:48:24;96181.47;;;6.12;71.69
83195;BME280;73090;49.282;11.402;2024-02-21T18:52:26;96173.81;;;6.19;70.18
83195;BME280;73090;49.282;11.402;2024-02-21T18:56:28;96163.97;;;6.29;69.49
83195;BME280;73090;49.282;11.402;2024-02-21T19:00:30;96144.38;;;6.42;67.63
83195;BME280;73090;49.282;11.402;2024-02-21T19:04:32;96154.47;;;6.45;68.00
83195;BME280;73090;49.282;11.402;2024-02-21T19:08:34;96148.56;;;6.51;67.41
83195;BME280;73090;49.282;11.402;2024-02-21T19:12:35;96140.31;;;6.70;65.58
83195;BME280;73090;49.282;11.402;2024-02-21T19:16:38;96130.84;;;6.69;66.33
83195;BME280;73090;49.282;11.402;2024-02-21T19:20:42;96131.44;;;6.80;66.09
83195;BME280;73090;49.282;11.402;2024-02-21T19:24:45;96118.72;;;6.77;65.52
83195;BME280;73090;49.282;11.402;2024-02-21T19:28:46;96110.44;;;6.73;66.32
83195;BME280;73090;49.282;11.402;2024-02-21T19:32:49;96129.53;;;6.74;66.44
83195;BME280;73090;49.282;11.402;2024-02-21T19:36:50;96139.97;;;6.74;69.47
83195;BME280;73090;49.282;11.402;2024-02-21T19:40:52;96128.28;;;6.61;68.79
83195;BME280;73090;49.282;11.402;2024-02-21T19:44:54;96123.09;;;6.53;71.08
83195;BME280;73090;49.282;11.402;2024-02-21T19:48:56;96110.38;;;6.50;68.06
83195;BME280;73090;49.282;11.402;2024-02-21T19:52:58;96119.34;;;6.47;70.29
83195;BME280;73090;49.282;11.402;2024-02-21T19:57:01;96093.25;;;6.47;68.37
83195;BME280;73090;49.282;11.402;2024-02-21T20:01:04;96097.31;;;6.50;67.80
83195;BME280;73090;49.282;11.402;2024-02-21T20:05:09;96087.84;;;6.57;66.63
83195;BME280;73090;49.282;11.402;2024-02-21T20:09:11;96088.59;;;6.66;65.58
83195;BME280;73090;49.282;11.402;2024-02-21T20:13:13;96077.78;;;6.69;66.23
83195;BME280;73090;49.282;11.402;2024-02-21T20:17:14;96069.28;;;6.75;64.65
83195;BME280;73090;49.282;11.402;2024-02-21T20:21:16;96081.88;;;6.71;67.20
83195;BME280;73090;49.282;11.402;2024-02-21T20:25:18;96077.63;;;6.70;68.61
83195;BME280;73090;49.282;11.402;2024-02-21T20:29:19;96068.66;;;6.65;70.13
83195;BME280;73090;49.282;11.402;2024-02-21T20:33:21;96064.00;;;6.60;70.48
83195;BME280;73090;49.282;11.402;2024-02-21T20:37:24;96064.50;;;6.56;67.87
83195;BME280;73090;49.282;11.402;2024-02-21T20:41:25;96057.47;;;6.56;66.53
83195;BME280;73090;49.282;11.402;2024-02-21T20:45:27;96046.34;;;6.62;65.85
83195;BME280;73090;49.282;11.402;2024-02-21T20:49:29;96041.28;;;6.61;66.00
83195;BME280;73090;49.282;11.402;2024-02-21T20:53:32;96034.72;;;6.65;65.45
83195;BME280;73090;49.282;11.402;2024-02-21T20:57:33;96040.44;;;6.68;64.85
83195;BME280;73090;49.282;11.402;2024-02-21T21:01:35;96031.41;;;6.71;66.85
83195;BME280;73090;49.282;11.402;2024-02-21T21:05:45;96017.88;;;6.67;65.79
83195;BME280;73090;49.282;11.402;2024-02-21T21:09:46;96022.13;;;6.68;66.26
83195;BME280;73090;49.282;11.402;2024-02-21T21:13:48;96014.66;;;6.65;66.25
83195;BME280;73090;49.282;11.402;2024-02-21T21:17:50;96003.38;;;6.65;65.64